Loisir ou Compétition : Rejoignez un Club de la Fédération

Résultats

TRAVERSEE DE CHARTREUSE

SAPPEY / ST HUGUES

FOND P Mixte

Jury de Compétition

Délégué Technique :
Michel Girard Blanc (DA)
D.T. Adjoint :
 
Dir. Epreuve :
Nicolas DUCASTEL (DA)

Caractéristiques de la Piste

Piste :
 
Distance :
 
Point Haut :
 
Point Bas :
 
Montée Tot. :
 
Montée Max. :
 
Homologation :
 

Pénalité Appliquée :
 
Coefficient :
 

Catégorie :
*
Style :
 
Clt Dos Clt/Cat Code An Nom Prénom Com Club Temps Ecart Points
Classés
1 4 1/VET1 FFS520575 1966 BULLE OLIVIER DA CSA REYNIES 00:00.0
2 28 1/SEN FFS512134 1981 GIRARD BLANC DAMIEN DA CS VILLARD 01:11.4 00:52.3
3 12 2/VET1 FFS810473 1968 FLOCHON JEAN MICHEL LY US CORMARANC 01:16.2 00:57.1
4 9 2/SEN FFS500695 1978 FANJAS CLARET NICOLAS DA CS VILLARD 01:30.3 01:11.2
5 20 3/SEN FFS920097 1980 LAURIN JEAN PASCAL MB SC GD BORNAN 01:45.8 01:26.7
6 13 1/VET2 FFS291437 1960 DUCHAMPT J FRANCOIS AU ACCSN 01:49.7 01:30.6
7 129 4/SEN FFS2240081 1983 OCCELLI BAPTISTE DA SN CHARTROUS 01:50.0 01:30.9
8 17 3/VET1 FFS1393317 1971 GORRY FRANCK DA SNGR OISANS 03:37.4 03:18.3
9 188 1/VET3 TIC69263 1950 BOURDEL ALAIN 03:41.9 03:22.8
10 101 4/VET1 FFS506015 1972 GALLIN STEPHANE DA SN CHARTROUS 03:49.6 03:30.5
11 5 5/SEN FFS2159440 1982 FELIX THOMAS DA SN CHARTROUS 03:52.8 03:33.7
12 137 2/VET3 LCN10121592 1946 BAILLY JEAN CLAUDE DA SN CHARTROUS 04:02.8 03:43.7
13 21 6/SEN FFS2206584 1982 ROUSSELY JULIEN DA US AUTRANNAI 05:23.0 05:03.9
14 180 7/SEN FFS506017 1974 CONSTANTIN CHRISTOPHE DA SN CHARTROUS 06:02.9 05:43.8
15 276 1/VET1 FFS995616 1973 MIGNEREY ANNE LAURE DA SA MEAUDRAIS 06:05.4 05:46.3
16 1 5/VET1 FFS743552 1964 MARGUET PATRICK DA US AUTRANNAI 06:08.2 05:49.1
17 175 2/VET2 FFS511869 1963 DEVAUX J FRANCOIS DA CS VILLARD 06:15.0 05:55.9
18 3 6/VET1 FFS543087 1973 OLIVAIN CHRISTOPHE DA GUC SPORTS N 06:20.7 06:01.6
19 29 7/VET1 FFS1493917 1972 SCHOTT PASCAL MV SONDERNACH 06:25.3 06:06.2
20 193 3/VET2 TIC69270 1963 PASTEUR OLIVIER 06:25.5 06:06.4
21 18 8/VET1 FFS810534 1971 GRANDCLEMENT PHILIPPE LY CS VALROMEY 06:40.4 06:21.3
22 31 8/SEN FFS510230 1981 THORET ALBAN DA SNGR OISANS 06:47.0 06:27.9
23 120 9/VET1 FFS2616077 1964 Nicoll Ed DA US AUTRANNAI 06:53.4 06:34.3
24 158 10/VET1 FFS2613514 1966 MARIN CHRISTOPHE DA EGREVE NORDI 07:00.7 06:41.6
25 156 11/VET1 FFS2203174 1967 GREGOIRE PHILIPPE PE SC BEILLE 07:01.3 06:42.2
26 172 12/VET1 FFS2174374 1964 GENIN LIONEL DA CS VILLARD 07:17.0 06:57.9
27 27 13/VET1 FFS2335060 1967 CLAUSTRE LAURENT DA CS VILLARD 07:18.9 06:59.8
28 19 9/SEN FFS529776 1979 BAYON LIONEL DA GUC SPORTS N 08:07.4 07:48.3
29 11 1/JUN FFS2291935 1985 RUELLE SYLVAIN DA GUC SPORTS N 08:08.9 07:49.8
30 218 14/VET1 TIC69372 1965 FARET PATRICK 08:40.7 08:21.6
31 26 15/VET1 FFS2275167 1973 HOLIN FABIEN DA SNGR OISANS 08:48.5 08:29.4
32 198 16/VET1 TIC69283 1967 FAURE CHRISTOPHE 08:58.1 08:39.0
33 25 4/VET2 FFS502384 1960 LAFAY MICHEL DA SNGR OISANS 09:04.4 08:45.3
34 184 10/SEN TIC69259 1974 NORMAND JOSEPH 09:31.6 09:12.5
35 7 17/VET1 FFS2603334 1972 LECOMTE BENJAMIN DA EGREVE NORDI 09:38.6 09:19.5
36 261 2/VET1 FFS501699 1967 MARGUET FLORENCE DA US AUTRANNAI 10:24.4 10:05.3
37 189 11/SEN TIC69265 1976 ROCHEX FREDERIC 10:25.0 10:05.9
38 186 12/SEN TIC69260 1977 NEYRON FRANCOIS 10:58.4 10:39.3
39 125 18/VET1 TIC69239 1973 KILLING ARNAULD 11:33.9 11:14.8
40 210 5/VET2 FFS2304735 1962 Morin Michel DA VSF 11:40.4 11:21.3
41 159 13/SEN FFS2334754 1975 DESCOTES GENON VINCENT DA SN CHARTROUS 12:00.8 11:41.7
42 16 14/SEN FFS900220 1977 REZVOY BENOIT MB SC GD BORNAN 12:15.6 11:56.5
43 162 15/SEN LCN10172448 1975 LECOMTE FABIEN 12:24.8 12:05.7
44 204 3/VET3 FFS2274763 1949 MORI RAYMOND DA SN CHARTROUS 12:26.5 12:07.4
45 135 6/VET2 FFS1093293 1959 FLAUX MARCEL SA SCCS 12:31.9 12:12.8
46 6 7/VET2 FFS2186630 1962 VASSAL XAVIER SA CN REVARD 12:44.5 12:25.4
47 187 8/VET2 FFS2144641 1961 BRUN JEAN CLAUDE DA CO SEPT LAUX 12:46.3 12:27.2
48 166 16/SEN FFS2301706 1981 GUIBERT AUGUSTIN AU CRETES FOREZ 12:47.6 12:28.5
49 167 9/VET2 FFS220576 1962 MOREL PHILIPPE AU PLOMB CANTAL 13:20.9 13:01.8
50 118 4/VET3 FFS1394310 1953 RADICI PIERRE SA SCCS 13:23.9 13:04.8
51 106 19/VET1 FFS2605655 1972 BENTOUMI NOUREDDINE DA GUC SPORTS N 13:54.0 13:34.9
52 121 10/VET2 FFS2315180 1957 FACCIO JEAN DENIS SA CS LA FECLAZ 14:24.5 14:05.4
53 110 20/VET1 FFS2273777 1967 PAGE PHILIPPE DA CS VILLARD 14:25.9 14:06.8
54 22 17/SEN FFS500483 1978 ARNAUD XAVIER DA SA MEAUDRAIS 14:32.1 14:13.0
55 109 18/SEN FFS230097 1980 BOULEGUE Pierre DA SN CHARTROUS 14:34.7 14:15.6
56 152 19/SEN FFS220101 1980 RUSSIAS GREGORY AU ASPTT CLT FD 14:36.0 14:16.9
57 115 21/VET1 TIC69251 1965 BERNARD PIERRE 14:44.0 14:24.9
58 263 1/SEN FFS2273766 1979 Rey Sophie DA GUC SPORTS N 14:46.3 14:27.2
59 181 11/VET2 FFS502558 1957 LEVRINO GILBERT DA EGREVE NORDI 15:10.0 14:50.9
60 202 20/SEN TIC69365 1976 PESANAO YANN 15:16.1 14:57.0
61 191 12/VET2 TIC69272 1962 LEBRETON LUC 15:28.8 15:09.7
62 151 13/VET2 FFS2244209 1954 GENOD JEAN LUC LY US CORMARANC 16:33.7 16:14.6
63 165 21/SEN FFS2331634 1978 FOURNIER AURELIEN AU PLOMB CANTAL 16:34.8 16:15.7
64 157 22/VET1 LCN10113947 1972 RIAS EMMANUEL DA EGREVE NORDI 16:37.9 16:18.8
65 33 22/SEN FFS912837 1979 REZVOY VINCENT MB SC GD BORNAN 16:50.0 16:30.9
66 114 23/VET1 FFS2335052 1971 THIEVENT DAVID DA EGREVE NORDI 17:06.9 16:47.8
67 161 14/VET2 LCN10113956 1956 BERLIAT JEAN MARC 17:07.2 16:48.1
68 138 24/VET1 TIC69245 1969 POCACHARD CHRISTOPHE 17:52.2 17:33.1
69 229 23/SEN TIC69385 1980 BOISSY YOHAN 18:35.6 18:16.5
70 178 15/VET2 FFS2305107 1959 BERTRAND CHRISTOPHE DA SN CHARTROUS 18:37.6 18:18.5
71 206 16/VET2 FFS521848 1957 LEGRAS DANIEL DA COF MOIRANS 18:39.0 18:19.9
72 216 2/JUN FFS2126532 1984 BERNARD NICOLAS DA SN CHARTROUS 18:39.3 18:20.2
73 155 24/SEN FFS2306650 1976 QUERON GUILLAUME MJ SC NOZEROY 18:51.3 18:32.2
74 105 17/VET2 FFS2206160 1956 ROUSSELY PHILIPPE DA US AUTRANNAI 19:08.9 18:49.8
75 214 25/VET1 TIC69370 1967 JULLIARD FREDERIC 19:09.9 18:50.8
76 130 18/VET2 FFS2616822 1963 Delion Stephane SA SCCS 19:18.8 18:59.7
77 112 26/VET1 LCN10121611 1965 LAVEUVE ERIC DA SN CHARTROUS 19:32.6 19:13.5
78 262 3/VET1 FFS2613513 1969 MARIN MURIEL DA EGREVE NORDI 20:15.9 19:56.8
79 100 27/VET1 TIC69231 1971 FOUGERES MATHIEU 20:23.7 20:04.6
80 153 19/VET2 FFS2305154 1958 MARMET HUBERT DA GUC SPORTS N 20:30.1 20:11.0
81 168 28/VET1 FFS2236732 1972 FORCE SYLVAIN AU CRETES FOREZ 20:41.7 20:22.6
82 196 1/VET4 FFS2335524 1900 BEATRIX J PIERRE DA US AUTRANNAI 21:29.0 21:09.9
83 213 20/VET2 LCN10121598 1957 DONNIER VALENTIN JEAN NOE DA SN CHARTROUS 21:31.8 21:12.7
84 212 21/VET2 EXT 1954 FLOHIC JEAN CLAUDE 21:32.6 21:13.5
85 195 29/VET1 TIC69269 1971 CONVERT PATRICE 21:39.9 21:20.8
86 215 5/VET3 FFS2141386 1947 VIGNARD PIERRE DA SF VOIRONNAI 21:40.7 21:21.6
87 107 22/VET2 FFS390245 1959 MEUNIER JEAN LOUIS CE LUNEL SKI 22:03.3 21:44.2
88 124 25/SEN TIC69367 1976 MONNET Serge DA CAF ISERE 22:05.1 21:46.0
89 119 23/VET2 FFS2334673 1957 MATARESE ROLAND DA CS PRESSE 22:14.5 21:55.4
90 231 24/VET2 FFS2605193 1959 Thevier Didier DA CS CHAMROUS 22:24.7 22:05.6
91 164 30/VET1 LCN10134620 1964 FAVRE JEAN JACQUES DA EGREVE NORDI 23:05.3 22:46.2
92 185 25/VET2 TIC69261 1963 MOCQUOT JEAN 23:08.7 22:49.6
93 170 26/VET2 FFS2613121 1960 THENOT PATRICK DA SNGR OISANS 23:22.4 23:03.3
94 136 27/VET2 TIC69244 1961 MACARY PHILIPPE 23:42.9 23:23.8
95 271 1/VET2 TIC69266 1963 PASTEUR SYLVIE 23:43.8 23:24.7
96 160 28/VET2 LCN10122568 1961 VERNIN FRANCOIS DA 24:42.0 24:22.9
97 205 31/VET1 LCN10115248 1967 NERRIERE CHRISTIAN 25:05.3 24:46.2
98 209 6/VET3 TIC69369 1950 VICIER JOSEPH DA SN CHARTROUS 25:07.3 24:48.2
99 222 29/VET2 TIC69378 1956 STAROPOLI FREDERIC 25:47.1 25:28.0
100 111 7/VET3 LCN10117696 1951 GAMBY FRANCOIS DA SN CHARTROUS 26:29.0 26:09.9
101 169 30/VET2 FIS066648 1962 BARETTA PAOLO SC DEL GARDA 26:34.4 26:15.3
102 208 31/VET2 LCN10134642 1963 GEIRSSON JON 26:42.4 26:23.3
103 142 32/VET2 FFS2335652 1956 HUMBERT MARC DA SC SAPPEY 26:45.7 26:26.6
104 154 32/VET1 TIC69247 1964 DREYFUS XAVIER 27:00.7 26:41.6
105 211 33/VET2 LCN10121618 1960 MONIN DIDER DA SN CHARTROUS 27:24.1 27:05.0
106 230 33/VET1 TIC69387 1971 BOISSY GWENAEL 27:24.9 27:05.8
107 227 34/VET1 TIC69384 1972 DEPRE JEROME 27:27.2 27:08.1
108 123 35/VET1 LCN10113949 1967 GERBERT GENTHON FRANCIS DA EGREVE NORDI 27:34.4 27:15.3
109 127 36/VET1 LCN101122581 1972 SCHUMMER DAVID DA SN CHARTROUS 28:08.5 27:49.4
110 176 34/VET2 FFS1093307 1958 SALLET JEAN CLAUDE IF CS CHEM PARI 28:19.8 28:00.7
111 149 8/VET3 FFS500431 1949 ROCHAS MAURICE DA CO MERGER 29:23.0 29:03.9
112 228 35/VET2 LCN10129257 1961 ROSSIGNOL BERNARD SA CS LA FECLAZ 29:26.8 29:07.7
113 223 26/SEN TIC69380 1975 RODRIGUEZ YOHAN 29:31.3 29:12.2
114 226 37/VET1 TIC69383 1971 VAN DE VIJVER PATRICK 29:31.5 29:12.4
115 217 36/VET2 TIC69371 1959 PESENTI SERGE 29:38.6 29:19.5
116 266 4/VET1 FFS2613408 1972 THIEVENT CORINNE DA EGREVE NORDI 30:24.6 30:05.5
117 128 37/VET2 LCN10122607 1961 CLUGNET JEAN FRANCOIS DA SN CHARTROUS 30:35.1 30:16.0
118 264 5/VET1 FFS2202901 1967 BERGER CATHERINE AU ACCSN 30:39.6 30:20.5
119 145 38/VET2 TIC69235 1963 CANNARD CHRISTOPHE 30:58.6 30:39.5
120 265 6/VET1 LCN10121609 1971 LAVEUVE CHRISTINE DA SN CHARTROUS 31:05.5 30:46.4
121 277 2/VET2 FFS2604294 1960 Dimaria Anette 31:14.4 30:55.3
122 219 39/VET2 LCN10167364 1954 BRUEL JEAN MARIE 31:33.0 31:13.9
123 268 7/VET1 TIC69256 1971 CLAUS SYLVIE 31:39.8 31:20.7
124 132 38/VET1 FFS2245358 1966 DECHENAUX REMI DA CO SEPT LAUX 31:47.5 31:28.4
125 190 40/VET2 TIC69267 1959 BRUNET MANQUAT GILBERT 32:12.5 31:53.4
126 102 9/VET3 LCN10153974 1951 LOVERA JEAN DA SN CHARTROUS 32:34.6 32:15.5
127 117 39/VET1 TIC69236 1972 COSS LAURENT 33:11.9 32:52.8
128 200 27/SEN LCN10153535 1974 MEYER LOIC 33:12.3 32:53.2
129 163 10/VET3 FFS2600607 1952 BONADIES JEAN PIERRE DA EGREVE NORDI 34:38.8 34:19.7
130 207 11/VET3 TIC69368 1950 RIONDET MICHEL 34:40.4 34:21.3
131 139 41/VET2 TIC69243 1960 BAILLEUL HERVE 35:59.1 35:40.0
132 174 12/VET3 FFS2274458 1953 BOTTESI JEAN LOUIS DA CS VILLARD 39:19.1 39:00.0
133 147 42/VET2 TIC69252 1955 DARS PATRICK 40:33.4 40:14.3
134 274 2/SEN TIC69379 1974 LETOUBLON ALICE 40:34.1 40:15.0
135 131 2/VET4 LCN10134270 1934 GEMOD RENE LY US CORMARANC 40:34.6 40:15.5
136 221 13/VET3 TIC69377 1947 LETOUBLON CHRISTIAN 40:49.7 40:30.6
137 133 14/VET3 FFS2613407 1950 SIMAVILLA JEAN PIERRE DA EGREVE NORDI 41:03.9 40:44.8
138 197 15/VET3 FFS2335519 1952 ARNOUX J PAUL DA US AUTRANNAI 43:23.2 43:04.1
139 177 40/VET1 TIC69253 1967 ANTOINE BERNARD ASRMV 45:14.3 44:55.2
140 273 3/VET2 LCN10141580 1959 DEFEMME ANNE SA CS LA FECLAZ 45:19.2 45:00.1
141 225 41/VET1 TIC69382 1973 CADEAU BELLIARD STEPHANE 45:35.0 45:15.9
142 203 43/VET2 FFS2617121 1955 Rideau Michel DA CSNO 46:45.2 46:26.1
143 194 28/SEN TIC69268 1977 CADEAU BELLIARD SEBASTIEN 47:58.7 47:39.6
144 199 44/VET2 TIC69284 1954 STEFANINI JEAN PHILIPPE 48:08.5 47:49.4
145 270 4/VET2 TIC69262 1954 ROULET JOSIANE 48:25.8 48:06.7
146 146 42/VET1 TIC69248 1973 MERMILLOD BLONDIN JEAN DA 48:39.4 48:20.3
147 220 45/VET2 LCN068636 1960 POIREL HERVE 49:31.5 49:12.4
148 224 46/VET2 TIC69381 1956 EYBERT GUILLON MARC 49:31.9 49:12.8
149 269 8/VET1 TIC69255 1973 FUCHS CHRISTINE 49:38.2 49:19.1
150 116 47/VET2 TIC69238 1957 NEGELE PATRICE 50:08.2 49:49.1
151 143 43/VET1 TIC69250 1971 PINSTON PHILIPPE 50:36.9 50:17.8
152 140 44/VET1 TIC69232 1964 REY PHILIPPE 52:11.0 51:51.9
153 272 5/VET2 TIC69366 1957 LEMAITRE REGINE 53:15.9 52:56.8
154 275 3/SEN FFS2613631 1974 FUYNEL ANNE DA EGREVE NORDI 56:37.4 56:18.3
155 260 6/VET2 TIC69237 1957 ROUX MARIE CHRISTINE 58:13.3 57:54.2
156 32 29/SEN FFS930121 1981 HUARD ANAEL MB SC GD BORNAN 58:58.1 58:39.0
157 10 45/VET1 FFS502344 1971 GAILLARD LILIAN DA SA MEAUDRAIS 58:59.3 58:40.2
158 8 30/SEN FFS540604 1983 DUCHENE VINCENT DA SA MEAUDRAIS 58:59.7 58:40.6
159 122 31/SEN FFS510415 1978 POIREE GAEL DA DOUA/VERCORS 59:00.1 58:41.0
160 2 32/SEN FFS2108842 1974 CHAPUIS PATRICE MJ OLYMP MT DOR 59:23.9 59:04.8
Non partants
14 FFS2130353 1985 GARDIN REMI DA SN CHARTROUS
15 FFS511549 1953 GRINDLER GILLES DA EGREVE NORDI
23 FFS544188 1973 TERMIER NICOLAS DA US AUTRANNAI
103 TIC69229 1961 PELLETIER ERIC
104 TIC69249 1956 ROUVEURE BERNARD
108 TIC69241 1959 PRACHE OLIVIER
113 FFS2206495 1947 JOYAUD J MICHEL DA EGREVE NORDI
126 TIC69242 1963 RADIGOIS CLAUDE
134 TIC69234 1974 GALINDO THIERRY
141 TIC69246 1960 WACK PHILIPPE DA CAF ISERE
144 TIC69230 1959 BELLE CLAUDE
171 FFS2206611 1964 POIROT REGIS DA SNGR OISANS
173 FFS2615353 1978 PRINGUEY ROBIN DA CS VILLARD
179 TIC69257 1963 GREGOIRE HENRI DA AS QUAIX
182 FFS2613575 1977 DELAYE MIKAEL SA CN REVARD
183 TIC69258 1968 PALARIC LAURENT
192 TIC69271 1962 NIER JACQUES
267 FIS066649 1969 CARBONETTI LIDIA SC DEL GARDA